Archival Weather

Republic

Farmingdale, New York (KFRG)

Report from: Wednesday, January 24, 2024 5:40 AM EST
Current time: Monday, June 17, 2024 4:38 AM EDT

Current weather – Weather history – Daily summaries
Weather forecast

Present weatherMist
Temperature2.8°C (37.0°F)
Wind chill0.2°C (32.4°F)
Dew point1.7°C (35.1°F)
Winds 5 kts (2.6 m/s, 5.8 mph) East (100°)
Visibility6 mi. (9.7 km)
Clouds Ceiling: Broken clouds 500 ft. (152 m)
Overcast 5,000 ft. (1,524 m)
Altimeter30.53 in.Hg (1034 mB)
Relative humidity92 %
Density altitude-2,077 ft. (-633 m)
Remarks Fully automated report
Automated weather observing station with precipitation discriminator
Present weather sensor not operating
Flight conditions Instrument Meteorological Conditions
Raw dataKFRG 241040Z AUTO 10005KT 6SM BR BKN005 OVC050 03/02 A3053 RMK AO2 T00280017 PWINO
An error has occurred. This application may no longer respond until reloaded. Reload 🗙